Observations for Trim Patrick St
| Time | AQI | Temp °C | Hum % | Pres Pa | CO μg/m³ | H₂S μg/m³ | NO μg/m³ | NO₂ μg/m³ | O₃ μg/m³ | SO₂ μg/m³ | PM1 μg/m³ | PM2.5 μg/m³ | PM10 μg/m³ |
|---|---|---|---|---|---|---|---|---|---|---|---|---|---|
| Wednesday 5 August 2026 | |||||||||||||
| 08:39 | 2 | 17 | 66 | 38,460 | 0.16 | 0 | 2.69 | 4.31 | 51.75 | 0 | 2.86 | 6.84 | 7.52 |
| 08:38 | 2 | 17 | 66 | 38,460 | 0.16 | 0 | 2.7 | 4.32 | 44.97 | 0 | 2 | 5.37 | 5.91 |
| 08:37 | 2 | 17 | 67 | 38,460 | 0.18 | 0 | 2.64 | 5.31 | 50.45 | 0 | 2 | 5.35 | 5.89 |
| 08:36 | 2 | 17 | 67 | 38,460 | 0.19 | 0 | 2.59 | 5.55 | 46.3 | 0 | 2 | 5.33 | 5.86 |
| 08:35 | 2 | 17 | 68 | 38,460 | 0.18 | 0 | 2.56 | 6.93 | 42.5 | 0 | 2 | 6.02 | 6.63 |
| 08:34 | 2 | 17 | 68 | 38,460 | 0.18 | 0 | 2.56 | 7 | 47.7 | 0 | 2 | 5.31 | 5.84 |
| 08:33 | 2 | 16.9 | 68 | 38,460 | 0.18 | 0 | 2.57 | 6.02 | 46.29 | 0 | 2 | 5.31 | 5.84 |
| 08:32 | 2 | 16.9 | 68 | 38,460 | 0.16 | 0 | 2.58 | 6.13 | 47.93 | 0 | 2 | 5.31 | 5.84 |
| 08:31 | 2 | 16.9 | 68 | 38,460 | 0.18 | 0 | 2.61 | 5.73 | 48.85 | 0 | 2 | 6.03 | 6.63 |
| 08:30 | 2 | 16.8 | 68 | 38,460 | 0.18 | 0 | 2.56 | 6.04 | 47.6 | 0 | 2 | 6.01 | 6.61 |
| 08:29 | 2 | 16.8 | 68 | 38,460 | 0.18 | 0 | 2.56 | 6.82 | 49.29 | 0 | 2 | 5.26 | 5.78 |
| 08:26 | 2 | 16.6 | 69 | 38,460 | 0.18 | 0 | 2.56 | 6.98 | 50.49 | 0 | 2 | 5.21 | 5.73 |
| 08:25 | 2 | 16.6 | 70 | 38,460 | 0.19 | 0 | 2.68 | 7.74 | 46.45 | 0 | 2 | 5.9 | 6.49 |
| 08:23 | 2 | 16.5 | 70 | 38,460 | 0.16 | 0 | 2.7 | 6.32 | 47.21 | 0 | 2 | 5.18 | 5.69 |
| 08:21 | 2 | 16.3 | 70 | 38,460 | 0.17 | 0 | 2.77 | 7.54 | 48.52 | 0 | 2 | 5.89 | 6.47 |
| 08:19 | 2 | 16.3 | 70 | 38,460 | 0.15 | 0 | 2.75 | 5.89 | 50.64 | 0 | 2 | 5.88 | 6.47 |
| 08:18 | 2 | 16.2 | 70 | 38,460 | 0.16 | 0 | 2.78 | 7.24 | 46.39 | 0 | 2 | 5.9 | 6.49 |
| 08:17 | 2 | 16.2 | 70 | 38,460 | 0.15 | 0 | 2.82 | 6.24 | 48.24 | 0 | 2 | 5.16 | 5.68 |
| 08:16 | 2 | 16.2 | 70 | 38,460 | 0.16 | 0 | 2.76 | 6.24 | 50.33 | 0 | 2 | 5.16 | 5.68 |
| 08:15 | 2 | 16.2 | 70 | 38,460 | 0.16 | 0 | 2.77 | 6.69 | 46.38 | 0 | 2 | 5.16 | 5.68 |